createdAt,value
2018-02-23T00:00:41.494Z,9.03
2018-02-23T00:03:08.926Z,10.37
2018-02-23T00:05:36.360Z,10.90
2018-02-23T00:08:03.785Z,11.87
2018-02-23T00:10:31.200Z,10.90
2018-02-23T00:12:58.614Z,9.67
2018-02-23T00:15:26.033Z,9.53
2018-02-23T00:17:53.462Z,10.32
2018-02-23T00:20:20.881Z,8.60
2018-02-23T00:22:48.281Z,9.93
2018-02-23T00:25:15.733Z,10.07
2018-02-23T00:27:43.179Z,9.93
2018-02-23T00:30:10.598Z,8.00
2018-02-23T00:32:38.001Z,10.60
2018-02-23T00:35:05.427Z,9.95
2018-02-23T00:37:32.833Z,8.70
2018-02-23T00:40:00.278Z,9.73
2018-02-23T00:42:27.713Z,9.30
2018-02-23T00:44:55.152Z,10.37
2018-02-23T00:47:22.573Z,8.43
2018-02-23T00:49:49.985Z,10.17
2018-02-23T00:52:17.401Z,8.27
2018-02-23T00:54:44.816Z,8.00
2018-02-23T00:57:12.231Z,8.57
2018-02-23T00:59:39.666Z,9.00
2018-02-23T01:02:07.084Z,11.30
2018-02-23T01:04:34.502Z,8.90
2018-02-23T01:07:01.920Z,10.23
2018-02-23T01:09:29.666Z,9.83
2018-02-23T01:11:57.109Z,8.70
2018-02-23T01:14:24.552Z,9.43
2018-02-23T01:16:51.960Z,10.93
2018-02-23T01:19:19.473Z,10.90
2018-02-23T01:21:46.897Z,9.60
2018-02-23T01:24:14.329Z,9.63
2018-02-23T01:26:41.784Z,8.40
2018-02-23T01:29:09.214Z,12.35
2018-02-23T01:31:36.634Z,10.90
2018-02-23T01:34:04.062Z,10.13
2018-02-23T01:36:31.482Z,8.03
2018-02-23T01:38:58.905Z,10.83
2018-02-23T01:41:26.329Z,10.00
2018-02-23T01:43:54.042Z,8.40
2018-02-23T01:46:22.310Z,10.43
2018-02-23T01:48:49.732Z,11.67
2018-02-23T01:51:17.153Z,10.07
2018-02-23T01:53:44.585Z,11.03
2018-02-23T01:56:12.003Z,8.10
2018-02-23T01:58:39.425Z,10.90
2018-02-23T02:01:06.932Z,10.77
2018-02-23T02:03:34.373Z,11.17
2018-02-23T02:06:01.799Z,9.38
2018-02-23T02:08:29.246Z,8.33
2018-02-23T02:10:56.662Z,9.80
2018-02-23T02:13:24.069Z,10.90
2018-02-23T02:15:51.506Z,10.00
2018-02-23T02:18:18.914Z,9.27
2018-02-23T02:20:46.339Z,10.10
2018-02-23T02:23:13.769Z,9.57
2018-02-23T02:25:41.250Z,8.52
2018-02-23T02:28:08.693Z,10.97
2018-02-23T02:30:36.127Z,10.60
2018-02-23T02:33:03.539Z,11.00
2018-02-23T02:35:30.966Z,10.07
2018-02-23T02:37:58.378Z,10.70
2018-02-23T02:40:25.807Z,11.13
2018-02-23T02:42:53.842Z,11.73
2018-02-23T02:45:21.285Z,8.97
2018-02-23T02:47:48.702Z,10.73
2018-02-23T02:50:16.130Z,12.40
2018-02-23T02:52:43.552Z,9.60
2018-02-23T02:55:10.971Z,8.30
2018-02-23T02:57:38.444Z,8.30
2018-02-23T03:00:05.866Z,7.60
2018-02-23T03:02:33.287Z,10.38
2018-02-23T03:05:00.706Z,8.23
2018-02-23T03:07:28.120Z,10.40
2018-02-23T03:09:55.545Z,11.07
2018-02-23T03:12:23.015Z,11.70
2018-02-23T03:14:50.458Z,9.60
2018-02-23T03:17:17.914Z,14.00
2018-02-23T03:19:45.360Z,13.43
2018-02-23T03:22:12.762Z,10.10
2018-02-23T03:24:40.201Z,11.90
2018-02-23T03:27:07.617Z,11.93
2018-02-23T03:29:35.138Z,11.52
2018-02-23T03:32:02.556Z,12.17
2018-02-23T03:34:29.962Z,11.30
2018-02-23T03:36:57.455Z,9.63
2018-02-23T03:39:25.464Z,9.88
2018-02-23T03:41:52.927Z,10.77
2018-02-23T03:44:20.389Z,10.55
2018-02-23T03:46:47.834Z,11.13
2018-02-23T03:49:15.249Z,11.70
2018-02-23T03:51:42.712Z,12.02
2018-02-23T03:54:10.141Z,11.90
2018-02-23T03:56:37.554Z,14.13
2018-02-23T03:59:04.977Z,12.50
2018-02-23T04:01:32.389Z,12.67
2018-02-23T04:03:59.866Z,13.00
2018-02-23T04:06:27.298Z,13.43
2018-02-23T04:08:54.710Z,12.93
2018-02-23T04:11:22.133Z,6.87
2018-02-23T04:13:49.552Z,14.20
2018-02-23T04:16:16.976Z,9.10
2018-02-23T04:18:44.389Z,12.85
2018-02-23T04:21:11.824Z,13.47
2018-02-23T04:23:39.229Z,11.67
2018-02-23T04:26:06.702Z,13.60
2018-02-23T04:28:34.140Z,11.37
2018-02-23T04:31:01.554Z,12.57
2018-02-23T04:33:28.983Z,13.57
2018-02-23T04:35:57.154Z,16.70
2018-02-23T04:38:24.566Z,12.60
2018-02-23T04:40:52.010Z,7.80
2018-02-23T04:43:19.442Z,11.37
2018-02-23T04:45:46.869Z,11.40
2018-02-23T04:48:14.378Z,11.63
2018-02-23T04:50:41.798Z,12.73
2018-02-23T04:53:09.250Z,14.20
2018-02-23T04:55:36.685Z,11.80
2018-02-23T04:58:04.098Z,10.87
2018-02-23T05:00:31.514Z,14.23
2018-02-23T05:02:58.958Z,13.60
2018-02-23T05:05:29.409Z,14.23
2018-02-23T05:07:56.840Z,13.53
2018-02-23T05:10:24.347Z,11.57
2018-02-23T05:12:51.770Z,13.30
2018-02-23T05:15:19.246Z,13.25
2018-02-23T05:17:46.665Z,13.80
2018-02-23T05:20:14.097Z,10.67
2018-02-23T05:22:41.520Z,12.77
2018-02-23T05:25:08.983Z,13.60
2018-02-23T05:27:36.415Z,13.27
2018-02-23T05:30:03.878Z,13.10
2018-02-23T05:32:31.377Z,13.07
2018-02-23T05:34:58.946Z,15.55
2018-02-23T05:37:26.407Z,15.53
2018-02-23T05:39:53.829Z,9.27
2018-02-23T05:42:21.250Z,12.60
2018-02-23T05:44:48.682Z,14.43
2018-02-23T05:47:16.169Z,9.60
2018-02-23T05:49:43.573Z,12.70
2018-02-23T05:52:10.998Z,12.40
2018-02-23T05:54:38.451Z,10.05
2018-02-23T05:57:06.017Z,12.93
2018-02-23T05:59:33.411Z,14.27
2018-02-23T06:02:00.838Z,15.20
2018-02-23T06:04:28.290Z,14.27
2018-02-23T06:06:55.715Z,12.60
2018-02-23T06:09:23.135Z,15.00
2018-02-23T06:11:50.573Z,15.93
2018-02-23T06:14:17.999Z,12.57
2018-02-23T06:16:45.422Z,14.87
2018-02-23T06:19:12.831Z,15.37
2018-02-23T06:21:40.273Z,15.00
2018-02-23T06:24:07.795Z,14.23
2018-02-23T06:26:35.217Z,14.43
2018-02-23T06:29:02.638Z,9.93
2018-02-23T06:31:30.747Z,13.65
2018-02-23T06:33:58.154Z,13.73
2018-02-23T06:36:25.571Z,16.63
2018-02-23T06:38:53.004Z,14.63
2018-02-23T06:41:20.429Z,14.83
2018-02-23T06:43:47.850Z,12.97
2018-02-23T06:46:15.277Z,13.27
2018-02-23T06:48:42.702Z,13.97
2018-02-23T06:51:10.113Z,16.12
2018-02-23T06:53:37.566Z,17.60
2018-02-23T06:56:04.983Z,16.23
2018-02-23T06:58:32.406Z,10.55
2018-02-23T07:00:59.815Z,16.80
2018-02-23T07:03:27.721Z,17.90
2018-02-23T07:05:55.177Z,15.80
2018-02-23T07:08:22.610Z,13.93
2018-02-23T07:10:50.060Z,15.37
2018-02-23T07:13:17.451Z,15.07
2018-02-23T07:15:44.875Z,18.87
2018-02-23T07:18:12.294Z,11.30
2018-02-23T07:20:39.720Z,12.87
2018-02-23T07:23:07.151Z,18.47
2018-02-23T07:25:34.566Z,16.37
2018-02-23T07:28:02.605Z,18.33
2018-02-23T07:30:30.024Z,9.43
2018-02-23T07:32:57.563Z,15.07
2018-02-23T07:35:24.978Z,17.30
2018-02-23T07:37:52.396Z,14.37
2018-02-23T07:40:19.820Z,15.98
2018-02-23T07:42:47.238Z,17.07
2018-02-23T07:45:14.669Z,13.30
2018-02-23T07:47:42.134Z,11.48
2018-02-23T07:50:09.550Z,20.30
2018-02-23T07:52:36.979Z,17.83
2018-02-23T07:55:04.452Z,16.65
2018-02-23T07:57:31.917Z,16.00
2018-02-23T07:59:59.333Z,20.87
2018-02-23T08:02:26.752Z,18.10
2018-02-23T08:04:54.177Z,14.97
2018-02-23T08:07:21.595Z,18.03
2018-02-23T08:09:49.068Z,13.57
2018-02-23T08:12:16.489Z,14.80
2018-02-23T08:14:44.021Z,20.60
2018-02-23T08:17:11.387Z,17.97
2018-02-23T08:19:38.826Z,18.90
2018-02-23T08:22:06.252Z,18.35
2018-02-23T08:24:34.605Z,15.18
2018-02-23T08:27:02.026Z,17.77
2018-02-23T08:29:29.500Z,14.57
2018-02-23T08:31:56.914Z,11.67
2018-02-23T08:34:24.346Z,17.43
2018-02-23T08:36:51.804Z,18.23
2018-02-23T08:39:19.223Z,18.50
2018-02-23T08:41:46.651Z,18.50
2018-02-23T08:44:14.074Z,19.30
2018-02-23T08:46:41.529Z,20.63
2018-02-23T08:49:08.945Z,19.90
2018-02-23T08:51:36.366Z,15.88
2018-02-23T08:54:03.790Z,19.07
2018-02-23T08:56:31.195Z,21.40
2018-02-23T08:58:58.634Z,17.65
2018-02-23T09:01:26.056Z,19.00
2018-02-23T09:03:53.471Z,19.93
2018-02-23T09:06:20.881Z,19.40
2018-02-23T09:08:48.329Z,16.67
2018-02-23T09:11:15.767Z,19.43
2018-02-23T09:13:43.201Z,20.83
2018-02-23T09:16:10.610Z,14.40
2018-02-23T09:18:38.093Z,18.13
2018-02-23T09:21:05.503Z,14.65
2018-02-23T09:23:32.935Z,20.37
2018-02-23T09:26:00.367Z,20.70
2018-02-23T09:28:27.817Z,20.83
2018-02-23T09:30:55.230Z,18.83
2018-02-23T09:33:22.663Z,23.73
2018-02-23T09:35:50.073Z,22.27
2018-02-23T09:38:17.485Z,21.27
2018-02-23T09:40:44.927Z,19.30
2018-02-23T09:43:12.365Z,19.87
2018-02-23T09:45:39.778Z,23.20
2018-02-23T09:48:07.681Z,18.75
2018-02-23T09:50:35.114Z,21.53
2018-02-23T09:53:02.525Z,19.77
2018-02-23T09:55:29.969Z,19.87
2018-02-23T09:57:57.528Z,22.57
2018-02-23T10:00:24.960Z,20.03
2018-02-23T10:02:52.389Z,19.20
2018-02-23T10:05:19.809Z,18.97
2018-02-23T10:07:47.253Z,21.58
2018-02-23T10:10:14.678Z,18.10
2018-02-23T10:12:42.094Z,24.53
2018-02-23T10:15:09.541Z,21.20
2018-02-23T10:17:37.112Z,22.90
2018-02-23T10:20:04.529Z,23.60
2018-02-23T10:22:31.982Z,22.33
2018-02-23T10:24:59.418Z,21.17
2018-02-23T10:27:26.822Z,21.90
2018-02-23T10:29:54.269Z,23.60
2018-02-23T10:32:21.691Z,21.33
2018-02-23T10:34:49.569Z,19.63
2018-02-23T10:37:16.989Z,18.77
2018-02-23T10:39:44.407Z,20.12
2018-02-23T10:42:11.826Z,24.30
2018-02-23T10:44:39.955Z,21.77
2018-02-23T10:47:07.379Z,19.47
2018-02-23T10:49:34.798Z,21.20
2018-02-23T10:52:02.215Z,24.80
2018-02-23T10:54:29.665Z,17.87
2018-02-23T10:56:57.122Z,22.87
2018-02-23T10:59:24.565Z,23.03
2018-02-23T11:01:51.981Z,23.87
2018-02-23T11:04:19.390Z,24.70
2018-02-23T11:06:46.820Z,20.60
2018-02-23T11:09:14.264Z,20.20
2018-02-23T11:11:41.697Z,24.00
2018-02-23T11:14:09.151Z,20.87
2018-02-23T11:16:36.577Z,19.63
2018-02-23T11:19:04.091Z,18.70
2018-02-23T11:21:31.519Z,23.70
2018-02-23T11:23:58.935Z,17.50
2018-02-23T11:26:26.435Z,22.70
2018-02-23T11:28:53.866Z,23.20
2018-02-23T11:31:21.290Z,22.77
2018-02-23T11:33:48.810Z,23.23
2018-02-23T11:36:16.222Z,22.23
2018-02-23T11:38:43.625Z,23.10
2018-02-23T11:41:11.072Z,22.83
2018-02-23T11:43:38.555Z,25.43
2018-02-23T11:46:05.971Z,24.93
2018-02-23T11:48:33.419Z,21.25
2018-02-23T11:51:00.879Z,18.53
2018-02-23T11:53:28.320Z,24.53
2018-02-23T11:55:55.758Z,24.20
2018-02-23T11:58:23.173Z,19.47
2018-02-23T12:00:50.631Z,22.90
2018-02-23T12:03:18.026Z,20.98
2018-02-23T12:05:45.543Z,25.23
2018-02-23T12:08:13.430Z,23.35
2018-02-23T12:10:40.852Z,24.93
2018-02-23T12:13:08.279Z,22.70
2018-02-23T12:15:35.722Z,19.02
2018-02-23T12:18:03.165Z,22.27
2018-02-23T12:20:30.587Z,22.07
2018-02-23T12:22:58.001Z,25.67
2018-02-23T12:25:25.430Z,25.13
2018-02-23T12:27:52.846Z,25.10
2018-02-23T12:30:20.280Z,22.70
2018-02-23T12:32:47.766Z,24.40
2018-02-23T12:35:15.182Z,25.50
2018-02-23T12:37:42.612Z,14.87
2018-02-23T12:40:10.055Z,23.50
2018-02-23T12:42:37.466Z,25.60
2018-02-23T12:45:04.882Z,28.05
2018-02-23T12:47:32.306Z,23.50
2018-02-23T12:49:59.715Z,22.20
2018-02-23T12:52:27.134Z,28.63
2018-02-23T12:54:54.540Z,21.33
2018-02-23T12:57:21.965Z,21.00
2018-02-23T12:59:49.370Z,19.57
2018-02-23T13:02:16.850Z,19.73
2018-02-23T13:04:44.353Z,19.83
2018-02-23T13:07:11.781Z,25.20
2018-02-23T13:09:39.225Z,19.03
2018-02-23T13:12:06.739Z,21.93
2018-02-23T13:14:39.782Z,24.07
2018-02-23T13:17:07.242Z,22.43
2018-02-23T13:19:34.653Z,23.80
2018-02-23T13:22:02.105Z,21.50
2018-02-23T13:24:29.501Z,22.30
2018-02-23T13:27:02.619Z,23.00
2018-02-23T13:29:30.042Z,20.90
2018-02-23T13:31:57.489Z,22.47
2018-02-23T13:34:24.908Z,25.83
2018-02-23T13:36:52.330Z,20.10
2018-02-23T13:39:19.754Z,21.17
2018-02-23T13:41:47.678Z,24.15
2018-02-23T13:44:15.116Z,26.50
2018-02-23T13:46:42.541Z,19.90
2018-02-23T13:49:09.948Z,19.83
2018-02-23T13:51:37.362Z,23.67
2018-02-23T13:54:11.198Z,20.60
2018-02-23T13:56:38.613Z,19.67
2018-02-23T13:59:06.022Z,19.37
2018-02-23T14:01:33.443Z,28.27
2018-02-23T14:04:00.855Z,19.00
2018-02-23T14:06:30.209Z,17.40
2018-02-23T14:08:57.713Z,19.00
2018-02-23T14:11:25.151Z,21.03
2018-02-23T14:13:52.800Z,23.10
2018-02-23T14:16:20.302Z,18.45
2018-02-23T14:18:47.728Z,25.10
2018-02-23T14:21:15.154Z,24.60
2018-02-23T14:23:42.577Z,23.40
2018-02-23T14:26:10.010Z,23.60
2018-02-23T14:28:37.426Z,23.90
2018-02-23T14:31:04.841Z,22.67
2018-02-23T14:33:32.258Z,16.87
2018-02-23T14:35:59.662Z,22.57
2018-02-23T14:38:27.096Z,22.70
2018-02-23T14:40:54.516Z,22.02
2018-02-23T14:43:22.069Z,20.40
2018-02-23T14:45:49.425Z,24.00
2018-02-23T14:51:17.811Z,22.65
2018-02-23T14:53:45.234Z,19.27
2018-02-23T14:56:12.644Z,19.53
2018-02-23T14:58:40.059Z,24.20
2018-02-23T15:01:07.473Z,24.42
2018-02-23T15:03:34.885Z,18.73
2018-02-23T15:06:02.290Z,21.97
2018-02-23T15:08:29.708Z,18.83
2018-02-23T15:10:57.128Z,20.12
2018-02-23T15:13:24.528Z,18.37
2018-02-23T15:15:52.424Z,24.08
2018-02-23T15:18:19.849Z,21.37
2018-02-23T15:20:47.248Z,17.03
2018-02-23T15:23:14.657Z,21.60
2018-02-23T15:25:42.070Z,20.20
2018-02-23T15:28:09.485Z,22.23
2018-02-23T15:30:48.732Z,16.70
2018-02-23T15:33:16.151Z,20.87
2018-02-23T15:35:43.559Z,20.57
2018-02-23T15:38:10.975Z,15.53
2018-02-23T15:40:38.386Z,16.57
2018-02-23T15:43:05.806Z,21.87
2018-02-23T15:45:33.224Z,20.93
2018-02-23T15:48:15.535Z,20.00
2018-02-23T15:50:48.497Z,18.23
2018-02-23T15:53:15.914Z,24.20
2018-02-23T15:55:43.325Z,18.25
2018-02-23T15:58:16.293Z,15.10
2018-02-23T16:00:43.707Z,19.70
2018-02-23T16:03:11.129Z,21.30
2018-02-23T16:05:38.541Z,18.02
2018-02-23T16:08:05.955Z,22.50
2018-02-23T16:10:33.360Z,17.80
2018-02-23T16:13:00.785Z,19.25
2018-02-23T16:15:28.203Z,18.75
2018-02-23T16:17:55.609Z,20.83
2018-02-23T16:20:23.029Z,22.52
2018-02-23T16:22:51.293Z,21.93
2018-02-23T16:25:18.697Z,18.77
2018-02-23T16:27:46.117Z,16.30
2018-02-23T16:30:13.521Z,15.50
2018-02-23T16:32:40.937Z,17.60
2018-02-23T16:35:08.345Z,19.20
2018-02-23T16:37:35.754Z,20.70
2018-02-23T16:40:03.165Z,16.80
2018-02-23T16:42:30.584Z,20.77
2018-02-23T16:44:58.001Z,19.03
2018-02-23T16:47:25.458Z,18.80
2018-02-23T16:49:52.826Z,17.27
2018-02-23T16:52:20.233Z,18.67
2018-02-23T16:54:47.649Z,19.63
2018-02-23T16:57:15.050Z,20.53
2018-02-23T16:59:42.466Z,21.27
2018-02-23T17:02:09.864Z,21.17
2018-02-23T17:04:37.284Z,19.40
2018-02-23T17:07:04.686Z,18.10
2018-02-23T17:09:32.107Z,17.90
2018-02-23T17:11:59.505Z,18.37
2018-02-23T17:14:26.926Z,21.03
2018-02-23T17:16:54.340Z,18.93
2018-02-23T17:19:21.744Z,21.90
2018-02-23T17:21:49.157Z,19.27
2018-02-23T17:24:16.573Z,18.40
2018-02-23T17:26:43.987Z,22.73
2018-02-23T17:29:11.406Z,19.63
2018-02-23T17:31:38.800Z,20.07
2018-02-23T17:34:06.223Z,18.93
2018-02-23T17:36:33.623Z,19.33
2018-02-23T17:39:01.046Z,20.53
2018-02-23T17:41:28.447Z,21.33
2018-02-23T17:43:56.461Z,18.30
2018-02-23T17:46:23.866Z,15.87
2018-02-23T17:48:51.269Z,22.00
2018-02-23T17:51:18.682Z,20.80
2018-02-23T17:53:46.097Z,19.40
2018-02-23T17:56:13.502Z,23.93
2018-02-23T17:58:40.920Z,19.13
2018-02-23T18:01:08.324Z,22.57
2018-02-23T18:03:35.736Z,24.00
2018-02-23T18:06:03.136Z,16.47
2018-02-23T18:08:30.545Z,16.50
2018-02-23T18:10:57.961Z,17.83
2018-02-23T18:13:25.377Z,18.03
2018-02-23T18:15:52.832Z,19.80
2018-02-23T18:18:20.203Z,17.80
2018-02-23T18:20:47.619Z,13.30
2018-02-23T18:23:15.018Z,18.77
2018-02-23T18:25:42.428Z,16.50
2018-02-23T18:28:10.605Z,18.43
2018-02-23T18:30:38.018Z,18.53
2018-02-23T18:33:05.416Z,19.00
2018-02-23T18:35:32.833Z,21.37
2018-02-23T18:38:00.232Z,18.90
2018-02-23T18:40:28.351Z,15.85
2018-02-23T18:42:55.745Z,18.43
2018-02-23T18:45:23.160Z,21.50
2018-02-23T18:47:50.561Z,17.83
2018-02-23T18:50:17.979Z,17.70
2018-02-23T18:52:45.604Z,17.37
2018-02-23T18:55:13.797Z,20.60
2018-02-23T18:57:41.205Z,19.30
2018-02-23T19:00:08.619Z,21.00
2018-02-23T19:02:36.601Z,17.27
2018-02-23T19:05:04.024Z,19.17
2018-02-23T19:07:31.433Z,22.50
2018-02-23T19:09:59.208Z,15.95
2018-02-23T19:12:26.612Z,15.87
2018-02-23T19:14:55.593Z,21.17
2018-02-23T19:17:22.997Z,17.97
2018-02-23T19:19:50.405Z,19.57
2018-02-23T19:22:17.814Z,22.67
2018-02-23T19:24:45.229Z,15.50
2018-02-23T19:27:12.637Z,20.95
2018-02-23T19:29:40.059Z,20.00
2018-02-23T19:32:07.468Z,21.17
2018-02-23T19:34:34.895Z,21.12
2018-02-23T19:37:02.307Z,20.80
2018-02-23T19:39:30.153Z,19.00
2018-02-23T19:41:57.571Z,20.00
2018-02-23T19:44:24.985Z,19.03
2018-02-23T19:46:52.398Z,20.57
2018-02-23T19:49:19.812Z,22.37
2018-02-23T19:51:47.291Z,20.77
2018-02-23T19:54:14.649Z,19.60
2018-02-23T19:56:42.068Z,22.53
2018-02-23T19:59:09.483Z,19.40
2018-02-23T20:01:36.905Z,18.37
2018-02-23T20:04:04.317Z,20.77
2018-02-23T20:06:31.733Z,22.40
2018-02-23T20:08:59.156Z,20.57
2018-02-23T20:11:26.577Z,21.57
2018-02-23T20:13:53.986Z,20.58
2018-02-23T20:16:21.400Z,17.97
2018-02-23T20:18:48.809Z,21.90
2018-02-23T20:21:16.230Z,21.73
2018-02-23T20:23:43.631Z,21.07
2018-02-23T20:26:11.051Z,20.97
2018-02-23T20:28:38.462Z,19.60
2018-02-23T20:31:05.866Z,16.00
2018-02-23T20:33:33.264Z,21.90
2018-02-23T20:36:00.684Z,17.77
2018-02-23T20:38:28.085Z,19.43
2018-02-23T20:40:55.505Z,20.00
2018-02-23T20:43:22.912Z,18.33
2018-02-23T20:45:50.327Z,20.23
2018-02-23T20:48:17.729Z,15.40
2018-02-23T20:50:45.138Z,18.90
2018-02-23T20:53:12.546Z,15.80
2018-02-23T20:55:39.957Z,16.13
2018-02-23T20:58:07.368Z,18.80
2018-02-23T21:00:34.782Z,19.90
2018-02-23T21:03:02.772Z,18.15
2018-02-23T21:05:30.180Z,18.97
2018-02-23T21:07:58.055Z,20.50
2018-02-23T21:10:25.465Z,17.43
2018-02-23T21:12:52.877Z,15.97
2018-02-23T21:15:20.286Z,22.50
2018-02-23T21:17:47.705Z,19.50
2018-02-23T21:20:15.114Z,18.30
2018-02-23T21:22:42.529Z,21.27
2018-02-23T21:25:09.938Z,22.83
2018-02-23T21:27:37.353Z,23.62
2018-02-23T21:30:04.763Z,21.27
2018-02-23T21:32:32.186Z,20.67
2018-02-23T21:34:59.589Z,15.52
2018-02-23T21:37:27.010Z,22.77
2018-02-23T21:39:54.416Z,19.30
2018-02-23T21:42:21.828Z,19.63
2018-02-23T21:44:49.248Z,22.30
2018-02-23T21:47:16.659Z,21.67
2018-02-23T21:49:44.073Z,22.90
2018-02-23T21:52:11.494Z,19.57
2018-02-23T21:54:38.900Z,21.98
2018-02-23T21:57:06.308Z,21.20
2018-02-23T22:02:37.685Z,23.77
2018-02-23T22:05:05.096Z,17.53
2018-02-23T22:07:32.520Z,24.40
2018-02-23T22:09:59.925Z,19.35
2018-02-23T22:12:27.345Z,18.83
2018-02-23T22:14:54.753Z,21.47
2018-02-23T22:17:22.184Z,24.67
2018-02-23T22:19:49.597Z,23.03
2018-02-23T22:22:17.023Z,21.62
2018-02-23T22:24:44.434Z,22.25
2018-02-23T22:27:11.840Z,23.73
2018-02-23T22:29:39.272Z,20.80
2018-02-23T22:32:06.690Z,25.37
2018-02-23T22:34:34.106Z,21.50
2018-02-23T22:37:01.527Z,21.87
2018-02-23T22:39:28.937Z,26.00
2018-02-23T22:41:56.365Z,20.57
2018-02-23T22:44:23.789Z,18.17
2018-02-23T22:46:51.214Z,21.70
2018-02-23T22:49:18.621Z,22.73
2018-02-23T22:51:46.036Z,22.37
2018-02-23T22:54:13.445Z,24.20
2018-02-23T22:56:40.864Z,22.75
2018-02-23T22:59:09.249Z,24.00
2018-02-23T23:01:36.660Z,24.97
2018-02-23T23:04:04.072Z,22.13
2018-02-23T23:06:31.493Z,26.07
2018-02-23T23:08:58.904Z,17.03
2018-02-23T23:11:26.311Z,20.93
2018-02-23T23:13:53.734Z,27.62
2018-02-23T23:16:21.147Z,21.43
2018-02-23T23:18:48.564Z,24.20
2018-02-23T23:21:15.985Z,19.65
2018-02-23T23:23:43.407Z,21.43
2018-02-23T23:26:10.821Z,21.90
2018-02-23T23:28:38.249Z,22.27
2018-02-23T23:31:05.663Z,18.90
2018-02-23T23:33:33.088Z,25.47
2018-02-23T23:36:00.501Z,16.85
2018-02-23T23:38:27.913Z,24.00
2018-02-23T23:40:55.337Z,25.47
2018-02-23T23:43:22.772Z,24.80
2018-02-23T23:45:50.181Z,20.00
2018-02-23T23:48:17.604Z,23.00
2018-02-23T23:50:45.020Z,19.37
2018-02-23T23:53:12.440Z,23.20
2018-02-23T23:55:39.856Z,18.07
2018-02-23T23:58:07.273Z,26.10
